Time;durP1;ratioP1;P1;durP2;ratioP2;P2;SDS_P1;SDS_P2;PMS_P1;PMS_P2;Temp;Humidity;BMP_temperature;BMP_pressure;BME280_temperature;BME280_humidity;BME280_pressure;Samples;Min_cycle;Max_cycle;Signal;HPM_P1;HPM_P2
2021/10/30 00:01:03;;;;;;;9.13;5.17;;;;;;;8.48;100.00;95887.88;5060661;28;20201;-69
2021/10/30 00:03:29;;;;;;;12.37;4.83;;;;;;;8.53;100.00;95885.53;5059679;28;20775;-69
2021/10/30 00:05:56;;;;;;;13.67;4.70;;;;;;;8.20;100.00;95893.75;5059227;28;20208;-69
2021/10/30 00:08:28;;;;;;;7.17;3.57;;;;;;;8.42;100.00;95886.94;5059906;28;20208;-69
2021/10/30 00:10:55;;;;;;;8.40;4.37;;;;;;;8.25;100.00;95880.09;5059943;28;20612;-69
2021/10/30 00:13:21;;;;;;;9.93;4.20;;;;;;;8.44;100.00;95870.03;5059609;28;20204;-69
2021/10/30 00:15:48;;;;;;;7.17;4.10;;;;;;;8.37;100.00;95876.13;5058819;28;20208;-68
2021/10/30 00:18:14;;;;;;;13.10;6.97;;;;;;;8.52;100.00;95878.66;5059859;28;20221;-69
2021/10/30 00:20:41;;;;;;;9.13;4.97;;;;;;;8.54;100.00;95879.31;5059709;28;20208;-69
2021/10/30 00:23:07;;;;;;;8.03;3.87;;;;;;;8.48;100.00;95881.81;5059301;28;20311;-69
2021/10/30 00:25:35;;;;;;;8.87;4.87;;;;;;;8.64;100.00;95876.44;5058757;28;20979;-69
2021/10/30 00:28:01;;;;;;;7.90;4.47;;;;;;;8.45;100.00;95881.34;5058969;28;20216;-69
2021/10/30 00:30:28;;;;;;;9.17;4.73;;;;;;;8.57;100.00;95881.59;5059525;28;20205;-69
2021/10/30 00:32:54;;;;;;;9.20;4.00;;;;;;;8.39;100.00;95871.50;5059730;28;20196;-69
2021/10/30 00:35:21;;;;;;;11.10;4.87;;;;;;;8.43;100.00;95868.38;5059405;28;20211;-69
2021/10/30 00:37:47;;;;;;;9.97;5.80;;;;;;;8.43;100.00;95862.31;5058474;28;20220;-69
2021/10/30 00:40:14;;;;;;;11.17;4.60;;;;;;;8.59;100.00;95860.41;5058941;28;20212;-69
2021/10/30 00:42:42;;;;;;;18.33;5.33;;;;;;;8.82;100.00;95864.69;5059222;28;20224;-69
2021/10/30 00:45:09;;;;;;;12.43;5.87;;;;;;;8.52;100.00;95862.91;5058947;28;20306;-69
2021/10/30 00:47:36;;;;;;;8.53;4.07;;;;;;;8.19;100.00;95862.44;5058809;28;20226;-69
2021/10/30 00:50:05;;;;;;;14.53;5.23;;;;;;;8.61;100.00;95856.59;5060095;28;20197;-69
2021/10/30 00:52:34;;;;;;;10.97;5.83;;;;;;;8.38;100.00;95856.78;5058254;28;20199;-69
2021/10/30 00:55:02;;;;;;;12.40;6.40;;;;;;;8.19;100.00;95850.13;5058672;28;20222;-69
2021/10/30 00:57:29;;;;;;;10.70;5.67;;;;;;;7.95;100.00;95846.78;5055817;28;20220;-69
2021/10/30 00:59:57;;;;;;;10.90;4.10;;;;;;;8.27;100.00;95846.66;5059680;28;20200;-69
2021/10/30 01:02:23;;;;;;;7.80;4.83;;;;;;;8.25;100.00;95846.00;5058718;28;20594;-69
2021/10/30 01:04:50;;;;;;;10.80;4.23;;;;;;;8.49;100.00;95842.25;5058567;28;21105;-69
2021/10/30 01:07:17;;;;;;;14.13;5.37;;;;;;;8.39;100.00;95847.88;5057893;28;20228;-69
2021/10/30 01:09:43;;;;;;;7.27;4.03;;;;;;;7.99;100.00;95842.81;5058524;28;20196;-69
2021/10/30 01:12:10;;;;;;;3.33;2.53;;;;;;;7.79;100.00;95854.72;5058915;28;20208;-69
2021/10/30 01:14:38;;;;;;;11.60;5.63;;;;;;;7.76;100.00;95860.28;5058718;28;20197;-68
2021/10/30 01:17:07;;;;;;;10.40;4.60;;;;;;;8.14;100.00;95849.03;5057887;28;20578;-69
2021/10/30 01:19:35;;;;;;;9.43;4.60;;;;;;;8.25;100.00;95843.38;5058709;28;20201;-69
2021/10/30 01:22:04;;;;;;;9.50;5.03;;;;;;;8.44;100.00;95824.56;5058603;28;20208;-69
2021/10/30 01:24:31;;;;;;;6.00;3.77;;;;;;;8.30;100.00;95826.13;5058048;28;20196;-69
2021/10/30 01:26:57;;;;;;;12.60;4.27;;;;;;;8.24;100.00;95831.25;5057751;28;20307;-69
2021/10/30 01:29:24;;;;;;;8.60;3.97;;;;;;;8.29;100.00;95823.69;5058758;28;20215;-69
2021/10/30 01:31:52;;;;;;;8.27;4.57;;;;;;;8.42;100.00;95810.81;5058462;28;20200;-69
2021/10/30 01:34:18;;;;;;;8.33;4.43;;;;;;;8.27;100.00;95807.28;5058102;28;20250;-69
2021/10/30 01:36:45;;;;;;;15.27;5.83;;;;;;;8.26;100.00;95814.34;5057317;28;20216;-69
2021/10/30 01:39:13;;;;;;;14.73;5.17;;;;;;;8.34;100.00;95808.22;5058418;28;20211;-69
2021/10/30 01:41:40;;;;;;;7.43;4.30;;;;;;;8.20;100.00;95803.72;5058410;28;20201;-69
2021/10/30 01:44:07;;;;;;;6.57;3.83;;;;;;;8.01;100.00;95804.13;5058203;28;20216;-69
2021/10/30 01:46:34;;;;;;;14.70;5.20;;;;;;;8.10;100.00;95797.84;5057630;28;20220;-69
2021/10/30 01:49:01;;;;;;;10.40;3.83;;;;;;;8.05;100.00;95794.91;5057782;28;20200;-69
2021/10/30 01:51:28;;;;;;;3.80;3.13;;;;;;;8.08;100.00;95784.91;5058144;28;20205;-69
2021/10/30 01:53:55;;;;;;;10.87;4.13;;;;;;;8.09;100.00;95789.13;5057678;28;20684;-69
2021/10/30 01:56:23;;;;;;;11.87;4.83;;;;;;;8.31;100.00;95790.19;5056756;28;20681;-69
2021/10/30 01:58:50;;;;;;;14.90;5.30;;;;;;;8.14;100.00;95789.47;5055191;28;20215;-69
2021/10/30 02:01:16;;;;;;;7.50;5.27;;;;;;;8.22;100.00;95785.97;5058236;28;20200;-69
2021/10/30 02:03:43;;;;;;;9.70;4.23;;;;;;;8.23;100.00;95790.25;5057026;28;20223;-69
2021/10/30 02:06:09;;;;;;;8.33;4.87;;;;;;;8.36;100.00;95790.50;5056480;28;20204;-69
2021/10/30 02:08:37;;;;;;;8.07;4.30;;;;;;;8.28;100.00;95791.34;5057749;28;20200;-69
2021/10/30 02:11:04;;;;;;;8.17;3.87;;;;;;;8.18;100.00;95793.38;5057959;28;20215;-69
2021/10/30 02:13:32;;;;;;;9.40;4.00;;;;;;;8.05;100.00;95797.53;5057410;28;20207;-69
2021/10/30 02:15:58;;;;;;;8.33;4.20;;;;;;;7.73;100.00;95794.25;5056645;28;20205;-69
2021/10/30 02:18:25;;;;;;;6.57;3.30;;;;;;;7.64;100.00;95780.34;5057046;28;20209;-69
2021/10/30 02:20:52;;;;;;;6.73;4.37;;;;;;;7.64;100.00;95788.22;5057064;28;20208;-69
2021/10/30 02:23:19;;;;;;;6.37;3.53;;;;;;;7.58;100.00;95791.50;5057433;28;20251;-69
2021/10/30 02:25:45;;;;;;;8.33;3.70;;;;;;;7.67;100.00;95785.25;5056731;28;20307;-69
2021/10/30 02:28:12;;;;;;;11.50;3.67;;;;;;;7.76;100.00;95789.47;5057091;28;20220;-69
2021/10/30 02:30:40;;;;;;;5.43;3.80;;;;;;;8.00;100.00;95787.53;5057312;28;20213;-69
2021/10/30 02:33:06;;;;;;;8.23;3.90;;;;;;;7.90;100.00;95788.75;5057209;28;20200;-69
2021/10/30 02:35:33;;;;;;;4.53;3.77;;;;;;;7.96;100.00;95795.94;5056232;28;20204;-69
2021/10/30 02:37:59;;;;;;;3.73;2.57;;;;;;;7.95;100.00;95781.19;5056995;28;20216;-69
2021/10/30 02:40:26;;;;;;;3.23;2.93;;;;;;;7.92;100.00;95784.16;5057092;28;20233;-69
2021/10/30 02:42:53;;;;;;;12.30;3.87;;;;;;;8.00;100.00;95792.00;5057307;28;20228;-69
2021/10/30 02:45:19;;;;;;;5.00;3.50;;;;;;;7.78;100.00;95791.91;5057065;28;20234;-69
2021/10/30 02:47:47;;;;;;;6.53;3.13;;;;;;;8.01;100.00;95798.88;5055868;28;20727;-69
2021/10/30 02:50:14;;;;;;;6.27;3.20;;;;;;;8.02;99.35;95790.03;5057287;28;20197;-69
2021/10/30 02:52:41;;;;;;;4.73;2.70;;;;;;;7.95;99.04;95786.44;5056841;28;20208;-69
2021/10/30 02:55:08;;;;;;;5.30;3.30;;;;;;;8.07;98.16;95779.81;5053366;28;20297;-69
2021/10/30 02:57:35;;;;;;;5.57;3.50;;;;;;;7.95;99.04;95775.94;5052950;28;20220;-69
2021/10/30 03:00:01;;;;;;;4.67;2.60;;;;;;;7.93;98.68;95773.50;5057210;28;20205;-69
2021/10/30 03:02:28;;;;;;;7.23;3.23;;;;;;;7.85;99.22;95766.66;5056512;28;20205;-69
2021/10/30 03:04:56;;;;;;;5.30;3.17;;;;;;;7.99;98.57;95758.88;5056853;28;20223;-69
2021/10/30 03:07:23;;;;;;;6.70;3.63;;;;;;;7.74;99.09;95760.00;5056413;28;20228;-69
2021/10/30 03:09:50;;;;;;;6.20;3.83;;;;;;;7.70;99.18;95756.09;5056310;28;20661;-69
2021/10/30 03:12:18;;;;;;;4.77;2.97;;;;;;;7.85;100.00;95756.16;5056212;28;20204;-69
2021/10/30 03:14:44;;;;;;;3.80;3.33;;;;;;;8.00;99.85;95755.25;5056647;28;20732;-69
2021/10/30 03:17:11;;;;;;;6.00;2.57;;;;;;;7.98;99.13;95758.06;5056663;28;20223;-69
2021/10/30 03:19:37;;;;;;;5.30;2.87;;;;;;;7.80;99.66;95758.47;5056531;28;20208;-69
2021/10/30 03:22:06;;;;;;;4.93;3.43;;;;;;;7.87;100.00;95747.13;5056509;28;20223;-69
2021/10/30 03:24:32;;;;;;;8.73;3.57;;;;;;;7.62;100.00;95740.38;5056523;28;20703;-69
2021/10/30 03:26:59;;;;;;;6.40;3.90;;;;;;;7.45;100.00;95730.13;5056046;28;20492;-69
2021/10/30 03:29:25;;;;;;;5.67;3.63;;;;;;;7.20;100.00;95735.63;5056780;28;20594;-69
2021/10/30 03:31:51;;;;;;;7.13;2.73;;;;;;;7.21;100.00;95726.78;5057076;28;20223;-69
2021/10/30 03:34:18;;;;;;;9.17;4.43;;;;;;;7.25;100.00;95730.72;5056368;28;20311;-69
2021/10/30 03:36:44;;;;;;;5.70;3.07;;;;;;;7.03;100.00;95727.00;5056108;28;20220;-69
2021/10/30 03:39:12;;;;;;;3.73;2.47;;;;;;;7.23;100.00;95723.03;5056297;28;20216;-68
2021/10/30 03:41:39;;;;;;;7.37;3.63;;;;;;;7.04;100.00;95718.16;5056017;28;20895;-69
2021/10/30 03:44:05;;;;;;;5.47;3.03;;;;;;;7.04;100.00;95725.19;5053568;28;20220;-69
2021/10/30 03:46:32;;;;;;;9.50;2.90;;;;;;;6.95;100.00;95726.19;5055478;28;20216;-69
2021/10/30 03:48:58;;;;;;;8.57;3.23;;;;;;;6.95;100.00;95726.19;5055859;28;20209;-69
2021/10/30 03:51:24;;;;;;;2.63;2.43;;;;;;;6.54;100.00;95729.84;5056798;28;20211;-69
2021/10/30 03:53:51;;;;;;;3.03;2.27;;;;;;;6.67;100.00;95723.16;5056523;28;20201;-69
2021/10/30 03:56:19;;;;;;;4.73;1.97;;;;;;;7.08;100.00;95708.97;5055169;28;20223;-69
2021/10/30 03:58:45;;;;;;;3.70;2.20;;;;;;;6.70;100.00;95703.69;5053704;28;20201;-69
2021/10/30 04:01:11;;;;;;;6.70;2.60;;;;;;;6.68;100.00;95701.22;5056621;28;20204;-69
2021/10/30 04:03:38;;;;;;;6.67;3.70;;;;;;;6.55;100.00;95699.28;5056408;28;20231;-69
2021/10/30 04:06:04;;;;;;;3.00;1.93;;;;;;;6.54;100.00;95702.88;5055376;28;20208;-69
2021/10/30 04:08:31;;;;;;;6.30;3.03;;;;;;;6.48;100.00;95704.38;5056233;28;20556;-69
2021/10/30 04:10:57;;;;;;;6.00;2.87;;;;;;;6.20;100.00;95713.53;5056105;28;20959;-68
2021/10/30 04:13:25;;;;;;;2.80;2.17;;;;;;;6.49;100.00;95710.41;5055832;28;20212;-69
2021/10/30 04:15:51;;;;;;;1.53;1.33;;;;;;;6.44;100.00;95712.69;5055624;28;20617;-69
2021/10/30 04:18:18;;;;;;;4.70;3.23;;;;;;;6.36;100.00;95710.09;5056081;28;20228;-68
2021/10/30 04:20:45;;;;;;;3.47;2.63;;;;;;;6.48;100.00;95699.13;5055628;28;21265;-68
2021/10/30 04:23:11;;;;;;;3.37;2.40;;;;;;;6.52;100.00;95692.56;5056132;28;20205;-69
2021/10/30 04:25:38;;;;;;;4.60;1.80;;;;;;;6.54;99.78;95703.69;5055387;28;20204;-69
2021/10/30 04:28:05;;;;;;;4.97;2.90;;;;;;;6.62;99.50;95701.06;5056793;28;20217;-69
2021/10/30 04:30:33;;;;;;;3.33;1.97;;;;;;;6.79;99.26;95698.25;5060134;28;20201;-69
2021/10/30 04:32:59;;;;;;;4.30;2.43;;;;;;;6.61;98.50;95698.63;5060341;28;21135;-69
2021/10/30 04:35:26;;;;;;;3.07;2.40;;;;;;;6.68;99.09;95688.13;5058821;28;20876;-69
2021/10/30 04:37:52;;;;;;;3.30;2.13;;;;;;;6.57;97.66;95684.22;5058755;28;20220;-69
2021/10/30 04:40:19;;;;;;;3.50;2.23;;;;;;;6.76;97.88;95679.47;5059866;28;20212;-69
2021/10/30 04:42:45;;;;;;;3.60;3.27;;;;;;;6.69;97.82;95668.00;5059358;28;20204;-69
2021/10/30 04:45:12;;;;;;;3.33;2.50;;;;;;;6.42;99.45;95670.19;5059193;28;20224;-69
2021/10/30 04:47:40;;;;;;;4.10;3.33;;;;;;;6.79;99.59;95658.16;5058746;28;20220;-68
2021/10/30 04:50:07;;;;;;;10.10;3.13;;;;;;;6.61;99.59;95647.09;5059178;28;20208;-68
2021/10/30 04:52:33;;;;;;;2.93;2.57;;;;;;;6.53;99.97;95654.97;5058711;28;20204;-68
2021/10/30 04:55:00;;;;;;;8.67;3.57;;;;;;;6.64;99.66;95643.31;5057252;28;20235;-69
2021/10/30 04:57:26;;;;;;;4.93;2.80;;;;;;;6.51;99.48;95643.03;5055214;28;20220;-68
2021/10/30 04:59:52;;;;;;;4.33;2.50;;;;;;;6.39;99.37;95637.31;5059119;28;20201;-69
2021/10/30 05:02:19;;;;;;;3.07;2.20;;;;;;;6.48;99.59;95625.84;5059147;28;20208;-69
2021/10/30 05:04:47;;;;;;;5.87;2.70;;;;;;;6.76;99.45;95627.91;5058722;28;20315;-69
2021/10/30 05:07:13;;;;;;;4.53;2.47;;;;;;;6.20;99.59;95621.97;5058173;28;20224;-69
2021/10/30 05:09:40;;;;;;;4.13;3.07;;;;;;;6.13;100.00;95615.75;5058884;28;20204;-69
2021/10/30 05:12:07;;;;;;;3.77;2.47;;;;;;;6.31;100.00;95616.41;5058724;28;20192;-68
2021/10/30 05:14:34;;;;;;;3.77;2.80;;;;;;;5.76;100.00;95625.09;5058807;28;20197;-69
2021/10/30 05:17:00;;;;;;;2.20;1.47;;;;;;;5.87;100.00;95616.94;5058276;28;20223;-69
2021/10/30 05:19:27;;;;;;;3.33;2.03;;;;;;;5.77;100.00;95600.59;5058460;28;20220;-69
2021/10/30 05:21:55;;;;;;;5.10;3.00;;;;;;;5.95;100.00;95597.81;5058731;28;20208;-69
2021/10/30 05:24:21;;;;;;;4.40;2.63;;;;;;;5.96;100.00;95591.56;5058471;28;20278;-69
2021/10/30 05:26:47;;;;;;;2.03;1.87;;;;;;;6.13;100.00;95586.97;5057488;28;20227;-68
2021/10/30 05:29:14;;;;;;;7.93;2.90;;;;;;;6.21;100.00;95583.53;5058596;28;20237;-69
2021/10/30 05:31:40;;;;;;;4.87;2.17;;;;;;;6.03;100.00;95582.09;5058722;28;20203;-69
2021/10/30 05:34:07;;;;;;;2.17;1.90;;;;;;;6.08;100.00;95578.84;5058289;28;20196;-69
2021/10/30 05:36:36;;;;;;;3.00;2.10;;;;;;;5.95;100.00;95580.31;5057426;28;20220;-69
2021/10/30 05:39:07;;;;;;;4.53;2.63;;;;;;;6.08;100.00;95576.22;5058662;28;20291;-69
2021/10/30 05:41:33;;;;;;;10.40;4.20;;;;;;;5.60;100.00;95592.84;5058143;28;20438;-70
2021/10/30 05:44:00;;;;;;;5.70;2.50;;;;;;;5.98;100.00;95592.25;5057845;28;20228;-70
2021/10/30 05:46:27;;;;;;;5.67;3.53;;;;;;;6.13;100.00;95570.47;5056903;28;20231;-70
2021/10/30 05:48:54;;;;;;;2.10;1.93;;;;;;;6.06;100.00;95583.41;5059157;28;20200;-70
2021/10/30 05:51:20;;;;;;;2.90;2.10;;;;;;;6.09;100.00;95580.44;5057738;28;20679;-70
2021/10/30 05:53:46;;;;;;;3.17;1.90;;;;;;;6.12;100.00;95587.16;5057818;28;20205;-70
2021/10/30 05:56:14;;;;;;;6.30;2.87;;;;;;;6.43;100.00;95583.66;5057645;28;20212;-70
2021/10/30 05:58:41;;;;;;;4.63;2.53;;;;;;;5.97;100.00;95578.38;5054910;28;20245;-70
2021/10/30 06:01:07;;;;;;;1.93;1.77;;;;;;;6.09;100.00;95588.28;5057664;28;20200;-70
2021/10/30 06:03:34;;;;;;;2.30;2.07;;;;;;;5.63;100.00;95567.22;5057626;28;20219;-70
2021/10/30 06:06:01;;;;;;;2.87;2.30;;;;;;;5.84;100.00;95593.75;5056799;28;20216;-70
2021/10/30 06:08:28;;;;;;;2.87;1.77;;;;;;;5.82;100.00;95580.00;5058034;28;20746;-70
2021/10/30 06:10:55;;;;;;;1.70;1.60;;;;;;;6.19;100.00;95583.72;5058219;28;20205;-70
2021/10/30 06:13:23;;;;;;;3.97;2.17;;;;;;;6.51;100.00;95582.84;5057186;28;20238;-70
2021/10/30 06:15:49;;;;;;;2.83;2.03;;;;;;;6.07;100.00;95584.22;5056629;28;20193;-70
2021/10/30 06:18:16;;;;;;;2.33;1.60;;;;;;;6.17;100.00;95585.69;5057758;28;20220;-70
2021/10/30 06:20:43;;;;;;;1.93;1.77;;;;;;;6.32;100.00;95578.78;5057682;28;20212;-70
2021/10/30 06:23:11;;;;;;;3.67;2.20;;;;;;;6.22;99.95;95580.78;5056991;28;20208;-70
2021/10/30 06:25:38;;;;;;;3.03;1.83;;;;;;;6.50;99.68;95578.56;5056062;28;20220;-70
2021/10/30 06:28:05;;;;;;;4.50;2.10;;;;;;;6.28;99.45;95580.09;5057439;28;20611;-69
2021/10/30 06:30:33;;;;;;;3.63;2.57;;;;;;;6.57;100.00;95588.22;5056813;28;20193;-70
2021/10/30 06:32:59;;;;;;;4.80;3.10;;;;;;;6.44;100.00;95592.31;5058324;28;20200;-70
2021/10/30 06:35:26;;;;;;;2.10;1.57;;;;;;;6.66;99.51;95582.75;5057399;28;20681;-70
2021/10/30 06:37:53;;;;;;;2.13;1.50;;;;;;;6.57;99.35;95587.38;5056328;28;20428;-70
2021/10/30 06:40:21;;;;;;;1.83;1.43;;;;;;;6.55;99.45;95574.47;5056851;28;20208;-70
2021/10/30 06:42:47;;;;;;;3.07;2.03;;;;;;;6.34;99.75;95568.97;5057583;28;20661;-70
2021/10/30 06:45:14;;;;;;;5.40;2.40;;;;;;;6.42;99.31;95563.72;5056501;28;21427;-70
2021/10/30 06:47:42;;;;;;;6.23;1.87;;;;;;;6.33;99.96;95564.72;5055731;28;20697;-70
2021/10/30 06:50:19;;;;;;;2.33;1.63;;;;;;;6.26;100.00;95574.22;5056588;28;20204;-70
2021/10/30 06:52:45;;;;;;;1.27;1.10;;;;;;;6.13;99.97;95566.06;5056893;28;20230;-70
2021/10/30 06:55:12;;;;;;;4.47;2.83;;;;;;;6.30;99.38;95554.59;5056899;28;20200;-70
2021/10/30 06:57:38;;;;;;;3.10;1.37;;;;;;;6.22;100.00;95545.94;5052872;28;20235;-70
2021/10/30 07:00:08;;;;;;;3.33;2.57;;;;;;;6.40;100.00;95547.38;5056583;28;20231;-70
2021/10/30 07:02:34;;;;;;;1.70;1.47;;;;;;;6.25;100.00;95545.59;5055877;28;20212;-70
2021/10/30 07:05:02;;;;;;;2.97;2.37;;;;;;;6.28;100.00;95540.06;5055987;28;20220;-70
2021/10/30 07:07:28;;;;;;;1.63;1.53;;;;;;;6.20;100.00;95532.22;5055814;28;20228;-70
2021/10/30 07:09:59;;;;;;;2.57;1.93;;;;;;;6.04;100.00;95534.06;5056567;28;20631;-70
2021/10/30 07:12:26;;;;;;;2.10;1.43;;;;;;;6.00;100.00;95520.50;5056250;28;20810;-70
2021/10/30 07:14:53;;;;;;;4.40;2.13;;;;;;;6.16;100.00;95515.22;5056982;28;20270;-70
2021/10/30 07:17:19;;;;;;;3.07;2.37;;;;;;;6.16;100.00;95523.91;5055797;28;20224;-70
2021/10/30 07:19:45;;;;;;;2.63;1.93;;;;;;;6.24;100.00;95521.25;5056632;28;20208;-70
2021/10/30 07:22:14;;;;;;;5.33;1.47;;;;;;;6.44;100.00;95516.44;5056667;28;20211;-70
2021/10/30 07:24:40;;;;;;;4.47;1.83;;;;;;;6.10;100.00;95505.44;5056879;28;20216;-70
2021/10/30 07:27:07;;;;;;;2.03;1.80;;;;;;;6.25;100.00;95503.75;5055290;28;20811;-70
2021/10/30 07:29:33;;;;;;;4.23;2.03;;;;;;;6.35;100.00;95510.44;5056296;28;20690;-70
2021/10/30 07:32:00;;;;;;;3.47;2.67;;;;;;;6.24;100.00;95508.16;5056531;28;20204;-70
2021/10/30 07:34:26;;;;;;;1.70;1.33;;;;;;;6.11;100.00;95499.22;5056552;28;20200;-70
2021/10/30 07:36:54;;;;;;;2.03;1.33;;;;;;;6.35;100.00;95493.91;5055939;28;20220;-70
2021/10/30 07:39:22;;;;;;;1.37;1.27;;;;;;;6.52;100.00;95496.28;5056166;28;20200;-70
2021/10/30 07:41:49;;;;;;;2.63;1.67;;;;;;;6.44;100.00;95493.72;5056466;28;20197;-70
2021/10/30 07:44:15;;;;;;;4.10;2.10;;;;;;;6.34;100.00;95500.94;5056716;28;20208;-70
2021/10/30 07:46:42;;;;;;;5.23;2.80;;;;;;;6.49;100.00;95485.34;5055223;28;20220;-70
2021/10/30 07:49:08;;;;;;;5.10;2.97;;;;;;;6.69;100.00;95490.81;5055741;28;20211;-70
2021/10/30 07:51:35;;;;;;;2.20;1.77;;;;;;;6.56;100.00;95494.97;5055364;28;20208;-70
2021/10/30 07:54:01;;;;;;;7.90;3.07;;;;;;;6.72;100.00;95481.78;5055594;28;20605;-70
2021/10/30 07:56:29;;;;;;;3.97;2.30;;;;;;;7.05;100.00;95483.22;5054813;28;20225;-70
2021/10/30 07:58:57;;;;;;;17.03;2.53;;;;;;;6.92;98.74;95489.03;5053046;28;20288;-70
2021/10/30 08:01:24;;;;;;;3.63;1.77;;;;;;;6.96;99.78;95492.13;5056143;28;20204;-70
2021/10/30 08:03:50;;;;;;;3.43;2.90;;;;;;;6.96;99.10;95487.72;5059012;28;20200;-70
2021/10/30 08:06:16;;;;;;;4.83;3.63;;;;;;;6.81;98.76;95496.47;5059207;28;20231;-70
2021/10/30 08:08:43;;;;;;;8.97;2.93;;;;;;;6.90;97.69;95491.03;5059362;28;20204;-70
2021/10/30 08:11:09;;;;;;;4.33;2.33;;;;;;;7.10;97.07;95504.47;5060126;28;20214;-70
2021/10/30 08:13:37;;;;;;;3.17;2.43;;;;;;;7.26;98.33;95487.66;5060099;28;20211;-70
2021/10/30 08:16:04;;;;;;;5.57;2.57;;;;;;;7.33;97.28;95485.97;5059580;28;20200;-70
2021/10/30 08:18:31;;;;;;;3.53;2.47;;;;;;;7.19;96.10;95511.28;5059279;28;20212;-70
2021/10/30 08:20:57;;;;;;;3.07;1.93;;;;;;;7.29;96.60;95507.44;5059668;28;20215;-70
2021/10/30 08:23:24;;;;;;;3.83;2.60;;;;;;;7.25;96.62;95518.47;5059616;28;20610;-70
2021/10/30 08:25:51;;;;;;;3.07;2.43;;;;;;;7.29;97.19;95516.16;5058520;28;20227;-70
2021/10/30 08:28:19;;;;;;;5.87;3.27;;;;;;;7.47;97.53;95510.59;5059512;28;20311;-70
2021/10/30 08:30:46;;;;;;;3.67;2.40;;;;;;;7.83;96.49;95503.72;5059698;28;20585;-70
2021/10/30 08:33:14;;;;;;;3.07;2.03;;;;;;;7.71;94.83;95505.16;5059258;28;20626;-70
2021/10/30 08:35:41;;;;;;;5.87;2.90;;;;;;;7.74;94.01;95494.31;5058445;28;20197;-70
2021/10/30 08:38:09;;;;;;;4.20;3.17;;;;;;;7.80;93.70;95506.72;5059380;28;20243;-70
2021/10/30 08:40:36;;;;;;;4.80;2.50;;;;;;;7.70;93.95;95496.50;5058964;28;20197;-70
2021/10/30 08:43:03;;;;;;;3.03;2.07;;;;;;;7.43;96.66;95472.63;5058953;28;20697;-70
2021/10/30 08:45:31;;;;;;;3.13;2.07;;;;;;;7.51;96.37;95481.25;5058518;28;20223;-70
2021/10/30 08:48:00;;;;;;;3.10;2.40;;;;;;;7.68;95.84;95487.97;5058728;28;20220;-70
2021/10/30 08:50:27;;;;;;;2.97;2.23;;;;;;;7.39;96.33;95487.88;5059454;28;20211;-70
2021/10/30 08:52:54;;;;;;;4.20;2.73;;;;;;;7.35;95.58;95468.25;5058989;28;21010;-70
2021/10/30 08:55:20;;;;;;;3.83;2.17;;;;;;;7.45;96.69;95460.16;5059185;28;20200;-70
2021/10/30 08:57:47;;;;;;;2.33;2.13;;;;;;;7.26;96.42;95458.84;5055220;28;20220;-70
2021/10/30 09:00:20;;;;;;;3.23;2.23;;;;;;;7.68;96.36;95461.75;5058620;28;20208;-70
2021/10/30 09:02:57;;;;;;;3.93;2.87;;;;;;;7.68;96.61;95459.13;5058359;28;20254;-70
2021/10/30 09:05:26;;;;;;;4.80;2.90;;;;;;;7.35;97.80;95455.16;5058404;28;20243;-70
2021/10/30 09:07:54;;;;;;;2.80;1.53;;;;;;;7.44;96.80;95464.56;5058528;28;20224;-69
2021/10/30 09:10:23;;;;;;;6.70;2.83;;;;;;;7.59;97.66;95457.56;5058335;28;20197;-70
2021/10/30 09:12:51;;;;;;;3.47;1.87;;;;;;;7.59;97.14;95470.69;5059194;28;20208;-70
2021/10/30 09:15:19;;;;;;;7.30;3.13;;;;;;;7.47;97.73;95464.25;5058493;28;20832;-70
2021/10/30 09:17:47;;;;;;;6.57;3.23;;;;;;;7.42;97.44;95476.22;5057768;28;20223;-70
2021/10/30 09:20:15;;;;;;;7.33;3.47;;;;;;;7.54;96.58;95473.03;5059125;28;20244;-69
2021/10/30 09:22:56;;;;;;;10.03;5.60;;;;;;;7.98;96.39;95471.28;5058532;28;20201;-70
2021/10/30 09:25:22;;;;;;;5.07;2.37;;;;;;;7.89;96.86;95472.34;5057559;28;20220;-70
2021/10/30 09:27:53;;;;;;;3.03;2.50;;;;;;;8.02;98.12;95467.34;5058324;28;20216;-70
2021/10/30 09:30:22;;;;;;;3.77;2.37;;;;;;;8.14;95.88;95469.34;5058821;28;20216;-70
2021/10/30 09:32:56;;;;;;;3.63;2.17;;;;;;;8.55;95.37;95479.22;5058132;28;20192;-70
2021/10/30 09:35:26;;;;;;;7.17;3.80;;;;;;;8.38;93.59;95465.66;5058146;28;20211;-70
2021/10/30 09:37:54;;;;;;;3.07;2.53;;;;;;;8.55;92.67;95473.94;5057689;28;20220;-70
2021/10/30 09:40:24;;;;;;;8.53;2.63;;;;;;;8.58;93.88;95468.31;5057077;28;20209;-70
2021/10/30 09:42:53;;;;;;;4.63;3.03;;;;;;;8.59;93.25;95458.63;5058172;28;20266;-70
2021/10/30 09:45:19;;;;;;;3.77;2.47;;;;;;;8.43;92.52;95447.53;5058063;28;20235;-69
2021/10/30 09:48:00;;;;;;;3.27;2.23;;;;;;;8.96;91.63;95440.91;5057257;28;20596;-70
2021/10/30 09:50:29;;;;;;;2.83;2.63;;;;;;;8.80;91.96;95446.34;5058129;28;20209;-70
2021/10/30 09:52:57;;;;;;;5.43;2.83;;;;;;;8.86;92.55;95456.13;5058346;28;20201;-70
2021/10/30 09:55:24;;;;;;;5.57;2.63;;;;;;;8.43;95.35;95435.22;5056666;28;20208;-70
2021/10/30 09:58:01;;;;;;;5.87;2.70;;;;;;;8.90;94.28;95441.63;5054684;28;20216;-70
2021/10/30 10:00:29;;;;;;;4.63;2.43;;;;;;;8.23;95.85;95436.75;5057933;28;20200;-70
2021/10/30 10:02:59;;;;;;;4.10;2.50;;;;;;;8.72;95.51;95435.16;5057537;28;20642;-70
2021/10/30 10:05:28;;;;;;;4.27;2.83;;;;;;;8.83;94.14;95419.72;5056886;28;20256;-70
2021/10/30 10:07:57;;;;;;;3.00;2.17;;;;;;;8.70;93.45;95424.03;5057135;28;20224;-70
2021/10/30 10:10:23;;;;;;;5.77;3.47;;;;;;;8.57;93.97;95429.13;5056929;28;20216;-70
2021/10/30 10:12:52;;;;;;;5.43;3.93;;;;;;;8.62;93.88;95426.75;5057602;28;20208;-70
2021/10/30 10:15:21;;;;;;;6.43;2.63;;;;;;;8.27;95.79;95427.53;5057659;28;20295;-70
2021/10/30 10:17:48;;;;;;;6.20;3.00;;;;;;;8.56;95.82;95436.16;5057147;28;20221;-70
2021/10/30 10:20:15;;;;;;;3.77;2.53;;;;;;;8.62;94.87;95447.78;5056716;28;20225;-70
2021/10/30 10:22:42;;;;;;;5.80;2.90;;;;;;;8.45;94.67;95441.06;5057387;28;20424;-70
2021/10/30 10:25:30;;;;;;;5.47;3.50;;;;;;;9.02;91.36;95434.88;5057048;28;20212;-70
2021/10/30 10:28:20;;;;;;;8.20;3.23;;;;;;;8.91;92.59;95422.25;5057076;28;20220;-70
2021/10/30 10:30:52;;;;;;;4.23;3.33;;;;;;;8.63;94.20;95434.47;5056630;28;20204;-70
2021/10/30 10:33:19;;;;;;;3.63;2.80;;;;;;;8.81;92.41;95448.00;5057797;28;20201;-70
2021/10/30 10:36:21;;;;;;;4.87;3.13;;;;;;;9.17;91.24;95448.78;5056580;28;20979;-70
2021/10/30 10:39:21;;;;;;;5.63;2.73;;;;;;;9.26;90.45;95430.06;5051652;28;20292;-69
2021/10/30 10:41:56;;;;;;;5.33;3.63;;;;;;;9.35;90.53;95434.19;5057579;28;20200;-70
2021/10/30 10:45:06;;;;;;;6.80;2.83;;;;;;;9.39;91.00;95422.28;5056949;28;20207;-69
2021/10/30 10:48:01;;;;;;;2.40;2.07;;;;;;;9.67;88.81;95415.22;5055998;28;21011;-70
2021/10/30 10:50:35;;;;;;;6.40;3.23;;;;;;;9.67;89.41;95417.06;5056577;28;20226;-70
2021/10/30 10:53:19;;;;;;;4.83;3.70;;;;;;;9.67;89.62;95414.44;5056620;28;20703;-70
2021/10/30 10:56:09;;;;;;;3.23;2.23;;;;;;;9.83;89.28;95410.50;5056294;28;20207;-70
2021/10/30 10:59:04;;;;;;;7.33;4.40;;;;;;;9.60;89.40;95419.66;5053269;28;20910;-70
2021/10/30 11:01:31;;;;;;;6.00;3.60;;;;;;;9.14;89.64;95412.38;5050666;28;20287;-71
2021/10/30 11:04:11;;;;;;;6.63;3.17;;;;;;;9.30;90.30;95402.38;5057791;28;20289;-71
2021/10/30 11:06:42;;;;;;;6.63;3.63;;;;;;;9.18;91.41;95403.09;5055993;28;20890;-71
2021/10/30 11:09:12;;;;;;;3.93;2.87;;;;;;;9.64;89.68;95399.03;5056650;28;20827;-71
2021/10/30 11:11:39;;;;;;;3.57;2.77;;;;;;;9.29;90.89;95395.53;5057331;28;20199;-71
2021/10/30 11:14:08;;;;;;;6.27;3.73;;;;;;;9.52;90.45;95393.50;5057044;28;20204;-71
2021/10/30 11:16:40;;;;;;;8.10;3.10;;;;;;;9.35;91.28;95399.19;5055965;28;20218;-71
2021/10/30 11:19:18;;;;;;;4.53;3.10;;;;;;;9.62;90.42;95398.41;5058490;28;21153;-71
2021/10/30 11:21:47;;;;;;;8.50;4.50;;;;;;;9.44;88.60;95387.53;5057544;28;20213;-71
2021/10/30 11:24:20;;;;;;;5.50;2.97;;;;;;;9.63;89.02;95400.03;5057110;28;20212;-71
2021/10/30 11:26:55;;;;;;;6.87;2.87;;;;;;;9.61;88.78;95402.88;5056211;28;20224;-71
2021/10/30 11:29:23;;;;;;;6.57;3.43;;;;;;;9.65;89.18;95396.22;5057194;28;20207;-71
2021/10/30 11:31:54;;;;;;;5.07;2.90;;;;;;;9.92;89.50;95401.44;5057310;28;20200;-71
2021/10/30 11:34:21;;;;;;;5.80;4.00;;;;;;;9.52;89.24;95400.56;5057371;28;20318;-71
2021/10/30 11:36:47;;;;;;;5.10;3.13;;;;;;;9.74;88.15;95403.75;5057919;28;20216;-71
2021/10/30 11:39:15;;;;;;;7.63;4.37;;;;;;;10.08;86.80;95406.47;5060820;28;21011;-71
2021/10/30 11:41:44;;;;;;;11.57;3.87;;;;;;;10.12;88.11;95404.22;5061243;28;20200;-71